KLOL/LOL METAR and TAF weather

Enter ICAO airport designator
Station Type Date Time Source
KLOL METAR 2022/11/27 06:53 UTC NOAA

KLOL 270653Z AUTO 00000KT 10SM CLR M06/M10 A3025 RMK AO2 SLP263 T10611100


Station Type Date Time Source
KLOL Decoded METAR 2022/11/27 06:53 UTC NOAA

LOVELOCK DERBY FIELD, NV, United States (KLOL) 40-04N 118-34W 1189M
Nov 27, 2022 - 01:53 AM EST / 2022.11.27 0653 UTC
Wind: Calm:0
Visibility: 10 mile(s):0
Sky conditions: clear
Temperature: 21.0 F (-6.1 C)
Dew Point: 14.0 F (-10.0 C)
Relative Humidity: 73%
Pressure (altimeter): 30.25 in. Hg (1024 hPa)
ob: KLOL 270653Z AUTO 00000KT 10SM CLR M06/M10 A3025 RMK AO2 SLP263 T10611100
cycle: 7

Station Type Date Time Source
KLOL TAF 2010/01/05 05:22 UTC NOAA

TAF KLOL 050522Z 0506/0606 00000KT 1/4SM FZFG VV001
FM052000 VRB03KT 3SM BR OVC002
AMD NOT SKED

Example: see airport list